Time;durP1;ratioP1;P1;durP2;ratioP2;P2;SDS_P1;SDS_P2;PMS_P1;PMS_P2;Temp;Humidity;BMP_temperature;BMP_pressure;BME280_temperature;BME280_humidity;BME280_pressure;Samples;Min_cycle;Max_cycle;Signal;HPM_P1;HPM_P2
2023/05/17 00:00:33;;;;;;;4.03;2.10;;;21.70;53.40;;;;;;5037431;28;20492;-66
2023/05/17 00:02:59;;;;;;;3.47;2.30;;;21.70;53.30;;;;;;5038475;28;20033;-66
2023/05/17 00:05:24;;;;;;;3.33;2.30;;;21.70;53.30;;;;;;5039119;28;20026;-66
2023/05/17 00:07:50;;;;;;;4.05;2.50;;;21.70;53.30;;;;;;5044933;28;20056;-66
2023/05/17 00:10:16;;;;;;;3.28;2.30;;;21.70;53.30;;;;;;5037350;28;20408;-66
2023/05/17 00:12:42;;;;;;;3.17;2.28;;;21.70;53.30;;;;;;5036685;28;20037;-65
2023/05/17 00:15:08;;;;;;;2.90;2.20;;;21.70;53.30;;;;;;5035775;28;20049;-65
2023/05/17 00:17:36;;;;;;;3.47;2.28;;;21.70;53.30;;;;;;5037458;28;20104;-65
2023/05/17 00:20:01;;;;;;;3.40;2.22;;;21.70;53.30;;;;;;5037928;28;20026;-66
2023/05/17 00:22:27;;;;;;;3.70;2.53;;;21.70;53.30;;;;;;5040051;28;20358;-65
2023/05/17 00:24:52;;;;;;;3.50;2.17;;;21.70;53.30;;;;;;5037071;28;20049;-65
2023/05/17 00:27:18;;;;;;;4.30;2.20;;;21.70;53.30;;;;;;5036387;28;20033;-65
2023/05/17 00:29:44;;;;;;;3.45;2.20;;;21.70;53.30;;;;;;5037783;28;20567;-66
2023/05/17 00:32:09;;;;;;;2.95;2.00;;;21.60;53.20;;;;;;5036653;28;20029;-65
2023/05/17 00:34:35;;;;;;;3.35;2.00;;;21.60;53.20;;;;;;5039810;28;20469;-66
2023/05/17 00:37:00;;;;;;;2.80;1.95;;;21.70;53.20;;;;;;5037783;28;20197;-64
2023/05/17 00:39:26;;;;;;;2.65;1.70;;;21.60;53.20;;;;;;5037464;28;20032;-65
2023/05/17 00:41:51;;;;;;;2.90;1.88;;;21.70;53.20;;;;;;5037420;28;20071;-65
2023/05/17 00:44:17;;;;;;;2.50;1.80;;;21.60;53.20;;;;;;5035454;28;20461;-66
2023/05/17 00:46:43;;;;;;;2.58;1.70;;;21.60;53.10;;;;;;5038554;28;20025;-65
2023/05/17 00:49:08;;;;;;;2.85;1.98;;;21.60;53.20;;;;;;5039055;28;20392;-65
2023/05/17 00:51:34;;;;;;;3.15;1.92;;;21.60;53.20;;;;;;5038444;28;20029;-65
2023/05/17 00:54:01;;;;;;;3.10;1.83;;;21.60;53.20;;;;;;5040581;28;20029;-64
2023/05/17 00:56:26;;;;;;;2.80;1.90;;;21.60;53.20;;;;;;5037627;28;20041;-65
2023/05/17 00:58:52;;;;;;;2.58;1.80;;;21.60;53.10;;;;;;5037030;28;20041;-65
2023/05/17 01:01:19;;;;;;;2.40;1.65;;;21.60;53.10;;;;;;5036950;28;20053;-65
2023/05/17 01:03:45;;;;;;;2.38;1.73;;;21.60;53.10;;;;;;5038090;28;20022;-66
2023/05/17 01:06:10;;;;;;;2.40;1.60;;;21.60;53.20;;;;;;5037915;28;20076;-64
2023/05/17 01:08:36;;;;;;;2.97;1.77;;;21.60;53.10;;;;;;5039248;28;20082;-65
2023/05/17 01:11:10;;;;;;;2.38;1.63;;;21.60;53.10;;;;;;5040175;28;20451;-65
2023/05/17 01:14:01;;;;;;;2.63;1.70;;;21.60;53.10;;;;;;5043653;28;20048;-65
2023/05/17 01:16:33;;;;;;;2.38;1.70;;;21.60;53.10;;;;;;5041206;28;20115;-65
2023/05/17 01:19:10;;;;;;;2.67;1.67;;;21.60;53.10;;;;;;5039324;28;20433;-65
2023/05/17 01:21:50;;;;;;;2.75;1.80;;;21.60;53.10;;;;;;5040563;28;20319;-65
2023/05/17 01:24:39;;;;;;;2.90;1.85;;;21.60;53.10;;;;;;5037138;28;20025;-65
2023/05/17 01:27:06;;;;;;;2.90;1.85;;;21.60;53.10;;;;;;5040039;28;20028;-66
2023/05/17 01:29:34;;;;;;;3.00;1.77;;;21.60;53.10;;;;;;5038181;28;20978;-65
2023/05/17 01:32:03;;;;;;;2.63;1.63;;;21.60;53.10;;;;;;5038690;28;20029;-65
2023/05/17 01:34:29;;;;;;;2.55;1.90;;;21.60;53.10;;;;;;5041533;28;20028;-65
2023/05/17 01:36:56;;;;;;;2.50;1.60;;;21.60;53.10;;;;;;5041426;28;20036;-64
2023/05/17 01:39:22;;;;;;;2.70;1.92;;;21.60;53.60;;;;;;5037820;28;20033;-65
2023/05/17 01:41:56;;;;;;;3.00;1.80;;;21.50;53.00;;;;;;5039920;28;20085;-66
2023/05/17 01:45:17;;;;;;;2.63;1.70;;;21.50;53.00;;;;;;5042557;28;20402;-65
2023/05/17 01:48:08;;;;;;;2.55;1.50;;;21.60;53.10;;;;;;5034816;28;20060;-64
2023/05/17 01:50:35;;;;;;;2.95;1.58;;;21.60;53.10;;;;;;5038294;28;20125;-65
2023/05/17 01:53:07;;;;;;;2.70;1.60;;;21.50;53.00;;;;;;5039482;28;20485;-65
2023/05/17 01:55:43;;;;;;;2.13;1.42;;;21.50;53.00;;;;;;5043273;28;20044;-65
2023/05/17 01:58:11;;;;;;;2.40;1.50;;;21.50;53.00;;;;;;5042263;28;20511;-65
2023/05/17 02:00:39;;;;;;;2.67;1.88;;;21.50;53.00;;;;;;5043031;28;20112;-65
2023/05/17 02:03:05;;;;;;;1.95;1.40;;;21.50;53.00;;;;;;5040917;28;20032;-65
2023/05/17 02:05:30;;;;;;;2.42;1.58;;;21.50;53.00;;;;;;5039962;28;20063;-65
2023/05/17 02:07:56;;;;;;;2.63;1.60;;;21.50;53.00;;;;;;5038208;28;20036;-65
2023/05/17 02:10:21;;;;;;;2.20;1.50;;;21.50;53.00;;;;;;5037830;28;20060;-65
2023/05/17 02:12:47;;;;;;;2.20;1.50;;;21.50;53.00;;;;;;5040988;28;20477;-66
2023/05/17 02:15:15;;;;;;;2.55;1.52;;;21.50;52.90;;;;;;5041343;28;20069;-65
2023/05/17 02:17:40;;;;;;;2.10;1.50;;;21.50;53.00;;;;;;5039880;28;20021;-65
2023/05/17 02:20:07;;;;;;;2.72;1.40;;;21.50;53.00;;;;;;5039412;28;20122;-65
2023/05/17 02:22:33;;;;;;;2.10;1.35;;;21.50;53.00;;;;;;5043431;28;20614;-65
2023/05/17 02:24:58;;;;;;;2.00;1.33;;;21.50;53.00;;;;;;5037939;28;20138;-66
2023/05/17 02:27:24;;;;;;;2.20;1.38;;;21.40;53.00;;;;;;5039749;28;20025;-65
2023/05/17 02:29:49;;;;;;;2.08;1.38;;;21.40;53.00;;;;;;5038939;28;20141;-66
2023/05/17 02:32:15;;;;;;;2.17;1.30;;;21.50;53.00;;;;;;5037835;28;20029;-65
2023/05/17 02:34:40;;;;;;;2.08;1.40;;;21.40;53.00;;;;;;5039445;28;20091;-66
2023/05/17 02:37:06;;;;;;;2.60;1.55;;;21.50;53.00;;;;;;5039743;28;20025;-66
2023/05/17 02:39:32;;;;;;;1.77;1.40;;;21.40;52.90;;;;;;5037887;28;20377;-66
2023/05/17 02:41:58;;;;;;;2.15;1.45;;;21.40;52.90;;;;;;5039038;28;20968;-65
2023/05/17 02:44:24;;;;;;;1.95;1.20;;;21.40;52.90;;;;;;5036650;28;20107;-65
2023/05/17 02:46:49;;;;;;;2.10;1.30;;;21.50;53.00;;;;;;5041405;28;20033;-65
2023/05/17 02:49:15;;;;;;;2.65;1.48;;;21.40;52.90;;;;;;5040282;28;20079;-66
2023/05/17 02:51:40;;;;;;;2.05;1.30;;;21.40;52.90;;;;;;5041252;28;20082;-65
2023/05/17 02:54:06;;;;;;;2.10;1.40;;;21.40;52.90;;;;;;5038472;28;20021;-66
2023/05/17 02:56:32;;;;;;;2.05;1.35;;;21.40;52.90;;;;;;5038065;28;20029;-65
2023/05/17 02:59:00;;;;;;;1.98;1.48;;;21.40;52.90;;;;;;5039268;28;20327;-65
2023/05/17 03:01:26;;;;;;;1.88;1.25;;;21.40;52.90;;;;;;5037831;28;20024;-65
2023/05/17 03:03:52;;;;;;;1.98;1.30;;;21.40;53.40;;;;;;5040527;28;20025;-66
2023/05/17 03:06:18;;;;;;;2.72;1.30;;;21.40;52.90;;;;;;5038371;28;20017;-65
2023/05/17 03:08:43;;;;;;;1.75;1.30;;;21.40;52.90;;;;;;5039594;28;20051;-66
2023/05/17 03:11:09;;;;;;;2.08;1.30;;;21.40;52.90;;;;;;5037789;28;20021;-65
2023/05/17 03:13:34;;;;;;;2.00;1.33;;;21.40;52.90;;;;;;5039255;28;20067;-65
2023/05/17 03:16:00;;;;;;;2.35;1.40;;;21.40;52.90;;;;;;5040430;28;20029;-65
2023/05/17 03:18:26;;;;;;;1.90;1.20;;;21.40;53.40;;;;;;5040091;28;20026;-65
2023/05/17 03:20:51;;;;;;;2.05;1.10;;;21.40;52.80;;;;;;5041859;28;20100;-65
2023/05/17 03:23:17;;;;;;;1.90;1.40;;;21.40;52.90;;;;;;5039145;28;20026;-65
2023/05/17 03:25:42;;;;;;;1.73;1.30;;;21.40;52.80;;;;;;5034349;28;20029;-65
2023/05/17 03:28:08;;;;;;;2.22;1.30;;;21.40;52.90;;;;;;5038234;28;20469;-65
2023/05/17 03:30:33;;;;;;;1.80;1.30;;;21.30;52.80;;;;;;5041637;28;20151;-66
2023/05/17 03:32:59;;;;;;;2.03;1.40;;;21.30;52.80;;;;;;5039519;28;20068;-64
2023/05/17 03:35:25;;;;;;;2.00;1.30;;;21.40;52.90;;;;;;5037438;28;20032;-65
2023/05/17 03:37:50;;;;;;;1.23;1.05;;;21.30;52.80;;;;;;5037360;28;20101;-66
2023/05/17 03:40:16;;;;;;;1.88;1.20;;;21.30;52.90;;;;;;5038732;28;20133;-64
2023/05/17 03:42:42;;;;;;;1.88;1.08;;;21.40;52.90;;;;;;5039659;28;20417;-65
2023/05/17 03:45:08;;;;;;;1.80;1.10;;;21.40;52.80;;;;;;5038282;28;20064;-65
2023/05/17 03:47:33;;;;;;;2.17;1.30;;;21.30;52.80;;;;;;5039174;28;20068;-65
2023/05/17 03:49:59;;;;;;;1.70;1.30;;;21.40;52.80;;;;;;5040238;28;20094;-65
2023/05/17 03:52:24;;;;;;;1.70;1.20;;;21.40;52.80;;;;;;5038268;28;20033;-65
2023/05/17 03:54:50;;;;;;;2.03;1.20;;;21.30;53.30;;;;;;5037780;28;20497;-69
2023/05/17 03:57:16;;;;;;;1.92;1.17;;;21.30;52.80;;;;;;5033746;28;20041;-69
2023/05/17 03:59:42;;;;;;;1.80;1.20;;;21.30;52.80;;;;;;5037659;28;20605;-69
2023/05/17 04:02:07;;;;;;;1.75;1.15;;;21.30;52.80;;;;;;5037016;28;20028;-69
2023/05/17 04:04:33;;;;;;;1.30;1.00;;;21.30;52.70;;;;;;5041178;28;20029;-68
2023/05/17 04:06:59;;;;;;;1.85;1.20;;;21.30;52.80;;;;;;5035959;28;20033;-68
2023/05/17 04:09:24;;;;;;;1.88;1.35;;;21.30;52.80;;;;;;5037497;28;20051;-68
2023/05/17 04:11:50;;;;;;;1.60;1.08;;;21.30;52.80;;;;;;5037315;28;20017;-69
2023/05/17 04:14:17;;;;;;;1.85;1.20;;;21.30;52.70;;;;;;5037411;28;20039;-69
2023/05/17 04:16:43;;;;;;;1.50;1.00;;;21.30;52.80;;;;;;5037033;28;20029;-69
2023/05/17 04:19:09;;;;;;;1.90;1.17;;;21.30;52.70;;;;;;5036135;28;20373;-69
2023/05/17 04:21:34;;;;;;;1.48;1.10;;;21.30;52.70;;;;;;5037418;28;20048;-69
2023/05/17 04:24:00;;;;;;;1.48;0.98;;;21.30;52.70;;;;;;5037757;28;20032;-69
2023/05/17 04:26:26;;;;;;;1.92;1.10;;;21.30;52.70;;;;;;5034590;28;20420;-69
2023/05/17 04:28:51;;;;;;;1.98;1.20;;;21.30;52.70;;;;;;5039258;28;20049;-69
2023/05/17 04:31:17;;;;;;;2.00;1.10;;;21.30;53.30;;;;;;5038290;28;20033;-68
2023/05/17 04:33:43;;;;;;;1.75;1.10;;;21.30;52.70;;;;;;5037632;28;20033;-69
2023/05/17 04:36:08;;;;;;;1.40;0.90;;;21.30;52.80;;;;;;5038841;28;20021;-69
2023/05/17 04:38:34;;;;;;;1.63;1.08;;;21.20;52.70;;;;;;5038393;28;20067;-69
2023/05/17 04:41:08;;;;;;;1.70;1.10;;;21.20;52.70;;;;;;5036919;28;20500;-69
2023/05/17 04:43:34;;;;;;;2.00;1.15;;;21.20;52.70;;;;;;5037216;28;20029;-68
2023/05/17 04:45:59;;;;;;;1.70;1.08;;;21.20;52.70;;;;;;5038322;28;20488;-68
2023/05/17 04:48:26;;;;;;;1.60;1.02;;;21.20;52.70;;;;;;5037123;28;20370;-68
2023/05/17 04:50:52;;;;;;;1.50;1.00;;;21.20;52.70;;;;;;5037547;28;20036;-69
2023/05/17 04:53:18;;;;;;;1.52;1.10;;;21.20;52.70;;;;;;5035945;28;20094;-68
2023/05/17 04:55:44;;;;;;;1.58;1.10;;;21.20;52.70;;;;;;5038369;28;20017;-68
2023/05/17 04:58:10;;;;;;;1.90;1.10;;;21.20;52.70;;;;;;5036709;28;20032;-69
2023/05/17 05:00:36;;;;;;;2.28;1.10;;;21.20;52.70;;;;;;5040355;28;20033;-69
2023/05/17 05:03:03;;;;;;;1.50;1.00;;;21.20;52.70;;;;;;5037361;28;20386;-69
2023/05/17 05:05:30;;;;;;;1.20;1.00;;;21.20;52.70;;;;;;5037837;28;20100;-69
2023/05/17 05:07:56;;;;;;;1.35;0.98;;;21.20;52.70;;;;;;5036113;28;20426;-69
2023/05/17 05:10:22;;;;;;;1.48;1.05;;;21.20;52.70;;;;;;5037084;28;20033;-69
2023/05/17 05:12:48;;;;;;;1.70;1.00;;;21.20;52.70;;;;;;5035680;28;20057;-69
2023/05/17 05:15:14;;;;;;;1.67;1.00;;;21.20;52.70;;;;;;5037674;28;20026;-67
2023/05/17 05:17:40;;;;;;;1.50;1.00;;;21.20;52.60;;;;;;5036684;28;20040;-68
2023/05/17 05:20:07;;;;;;;1.48;1.00;;;21.20;52.60;;;;;;5036687;28;20029;-68
2023/05/17 05:22:33;;;;;;;1.67;1.00;;;21.20;52.60;;;;;;5037769;28;20044;-68
2023/05/17 05:24:58;;;;;;;1.92;1.10;;;21.10;52.50;;;;;;5037312;28;20087;-68
2023/05/17 05:27:24;;;;;;;1.58;0.98;;;21.20;52.60;;;;;;5035418;28;20103;-68
2023/05/17 05:29:50;;;;;;;2.35;1.20;;;21.20;52.50;;;;;;5036222;28;20036;-68
2023/05/17 05:32:16;;;;;;;1.55;1.00;;;21.20;52.50;;;;;;5037170;28;20471;-69
2023/05/17 05:34:41;;;;;;;1.35;0.90;;;21.10;52.40;;;;;;5037558;28;20045;-68
2023/05/17 05:37:07;;;;;;;2.22;1.15;;;21.20;52.50;;;;;;5033613;28;20028;-68
2023/05/17 05:39:32;;;;;;;1.60;0.98;;;21.20;52.40;;;;;;5035206;28;20199;-68
2023/05/17 05:41:58;;;;;;;1.60;0.90;;;21.10;52.30;;;;;;5037685;28;20440;-68
2023/05/17 05:44:24;;;;;;;1.63;0.95;;;21.10;52.30;;;;;;5038478;28;20913;-67
2023/05/17 05:46:49;;;;;;;2.72;0.90;;;21.10;52.30;;;;;;5035396;28;20033;-69
2023/05/17 05:49:15;;;;;;;1.60;0.82;;;21.10;52.50;;;;;;5037668;28;20037;-69
2023/05/17 05:51:40;;;;;;;1.30;0.80;;;21.20;52.50;;;;;;5035663;28;20043;-68
2023/05/17 05:54:06;;;;;;;3.05;0.90;;;21.20;52.40;;;;;;5034149;28;20028;-69
2023/05/17 05:56:31;;;;;;;1.50;0.90;;;21.30;52.30;;;;;;5037110;28;20033;-68
2023/05/17 05:58:57;;;;;;;1.48;1.02;;;21.40;52.20;;;;;;5041989;28;20068;-69
2023/05/17 06:01:24;;;;;;;1.85;1.10;;;21.40;51.90;;;;;;5038708;28;20083;-69
2023/05/17 06:03:50;;;;;;;1.80;0.90;;;21.60;51.70;;;;;;5040335;28;20087;-69
2023/05/17 06:06:18;;;;;;;2.50;1.10;;;21.60;51.50;;;;;;5056476;28;20044;-68
2023/05/17 06:08:45;;;;;;;2.22;1.23;;;21.80;51.90;;;;;;5040955;28;20366;-70
2023/05/17 06:11:12;;;;;;;1.70;0.93;;;21.80;51.20;;;;;;5072486;28;20163;-68
2023/05/17 06:13:37;;;;;;;1.42;0.80;;;21.90;51.30;;;;;;5041313;28;20033;-69
2023/05/17 06:16:04;;;;;;;1.17;0.80;;;22.00;51.20;;;;;;5048959;28;20045;-68
2023/05/17 06:18:30;;;;;;;1.35;0.80;;;22.00;51.10;;;;;;5044934;28;20522;-69
2023/05/17 06:20:56;;;;;;;1.38;0.80;;;22.10;51.00;;;;;;5041366;28;20017;-69
2023/05/17 06:23:21;;;;;;;1.65;0.90;;;22.20;51.20;;;;;;5036895;28;20029;-69
2023/05/17 06:25:47;;;;;;;0.98;0.77;;;22.20;51.00;;;;;;5040038;28;20507;-68
2023/05/17 06:28:12;;;;;;;1.85;0.90;;;22.30;50.90;;;;;;5035138;28;20466;-68
2023/05/17 06:30:38;;;;;;;2.30;1.17;;;22.40;50.80;;;;;;5052113;28;20037;-69
2023/05/17 06:33:04;;;;;;;1.58;0.90;;;22.50;50.40;;;;;;5044130;28;20039;-69
2023/05/17 06:35:29;;;;;;;1.40;0.90;;;22.60;50.30;;;;;;5040374;28;20018;-68
2023/05/17 06:37:55;;;;;;;1.58;0.80;;;22.70;50.10;;;;;;5037973;28;20036;-68
2023/05/17 06:40:20;;;;;;;2.03;1.10;;;22.70;50.00;;;;;;5046135;28;20029;-69
2023/05/17 06:42:46;;;;;;;2.60;0.90;;;22.70;50.80;;;;;;5044583;28;20124;-68
2023/05/17 06:45:12;;;;;;;1.33;0.90;;;22.70;50.00;;;;;;5037361;28;20037;-69
2023/05/17 06:47:37;;;;;;;1.25;0.85;;;22.70;50.20;;;;;;5038714;28;20416;-67
2023/05/17 06:50:04;;;;;;;2.13;1.10;;;22.70;50.30;;;;;;5040123;28;20038;-68
2023/05/17 06:52:29;;;;;;;1.05;0.80;;;22.80;50.10;;;;;;5038748;28;20112;-68
2023/05/17 06:54:55;;;;;;;1.17;0.85;;;22.80;50.20;;;;;;5045947;28;20080;-68
2023/05/17 06:57:21;;;;;;;1.30;0.80;;;22.80;50.30;;;;;;5036854;28;20052;-69
2023/05/17 06:59:47;;;;;;;1.23;0.88;;;22.80;50.20;;;;;;5040909;28;20055;-68
2023/05/17 07:02:12;;;;;;;1.55;0.88;;;22.80;50.20;;;;;;5039858;28;20033;-69
2023/05/17 07:04:38;;;;;;;1.75;0.80;;;22.70;50.50;;;;;;5039529;28;20441;-69
2023/05/17 07:07:03;;;;;;;1.38;0.80;;;22.70;50.40;;;;;;5041082;28;20052;-69
2023/05/17 07:09:29;;;;;;;1.60;0.90;;;22.80;50.60;;;;;;5038292;28;20082;-68
2023/05/17 07:11:55;;;;;;;1.67;0.90;;;22.70;50.40;;;;;;5038150;28;20357;-69
2023/05/17 07:14:20;;;;;;;2.25;0.90;;;22.70;50.60;;;;;;5043539;28;20052;-69
2023/05/17 07:16:48;;;;;;;1.20;0.75;;;22.70;50.30;;;;;;5040144;28;20021;-69
2023/05/17 07:19:13;;;;;;;1.60;0.90;;;22.80;50.40;;;;;;5038129;28;20139;-69
2023/05/17 07:21:40;;;;;;;1.17;0.82;;;22.70;50.50;;;;;;5039335;28;20101;-69
2023/05/17 07:24:05;;;;;;;1.08;0.77;;;22.80;50.60;;;;;;5034965;28;20497;-69
2023/05/17 07:26:31;;;;;;;0.95;0.70;;;22.80;50.60;;;;;;5039089;28;20131;-69
2023/05/17 07:28:56;;;;;;;1.35;0.75;;;22.70;50.50;;;;;;5038055;28;20071;-69
2023/05/17 07:31:22;;;;;;;1.15;0.80;;;22.70;50.60;;;;;;5035807;28;20029;-69
2023/05/17 07:33:48;;;;;;;2.35;0.93;;;22.70;50.80;;;;;;5038514;28;20037;-69
2023/05/17 07:36:13;;;;;;;1.70;0.80;;;22.80;50.70;;;;;;5036790;28;20036;-69
2023/05/17 07:38:39;;;;;;;2.00;0.90;;;22.80;50.80;;;;;;5038280;28;20021;-69
2023/05/17 07:41:08;;;;;;;1.15;0.70;;;22.70;50.60;;;;;;5036383;28;20072;-69
2023/05/17 07:43:37;;;;;;;1.48;0.98;;;22.80;50.90;;;;;;5038785;28;20032;-69
2023/05/17 07:46:03;;;;;;;1.45;0.80;;;22.70;50.90;;;;;;5039322;28;20045;-68
2023/05/17 07:48:29;;;;;;;1.65;0.85;;;22.80;50.60;;;;;;5040461;28;20112;-69
2023/05/17 07:50:55;;;;;;;2.20;0.80;;;22.80;50.70;;;;;;5038081;28;20465;-69
2023/05/17 07:53:20;;;;;;;1.92;0.90;;;22.80;50.60;;;;;;5036570;28;20052;-68
2023/05/17 07:55:46;;;;;;;1.00;0.60;;;22.80;50.60;;;;;;5036539;28;20772;-69
2023/05/17 07:58:12;;;;;;;1.38;0.80;;;22.80;50.70;;;;;;5035167;28;20425;-69
2023/05/17 08:00:37;;;;;;;1.90;0.82;;;22.80;50.70;;;;;;5035699;28;20030;-69
2023/05/17 08:03:03;;;;;;;1.20;0.80;;;22.80;50.90;;;;;;5035941;28;20029;-69
2023/05/17 08:05:29;;;;;;;2.42;1.00;;;22.80;50.70;;;;;;5038441;28;20247;-69
2023/05/17 08:07:58;;;;;;;1.45;0.80;;;22.80;50.70;;;;;;5036866;28;20580;-69
2023/05/17 08:10:24;;;;;;;;;;;22.80;50.70;;;;;;5037858;28;20060;-69
2023/05/17 08:12:50;;;;;;;2.10;0.93;;;22.80;50.60;;;;;;5034854;28;19927;-69
2023/05/17 08:15:15;;;;;;;1.73;0.80;;;22.80;50.60;;;;;;5038026;28;20102;-69
2023/05/17 08:17:41;;;;;;;1.40;0.85;;;22.80;50.60;;;;;;5037736;28;20458;-69
2023/05/17 08:20:07;;;;;;;1.77;0.80;;;22.80;50.60;;;;;;5034906;28;20037;-68
2023/05/17 08:22:33;;;;;;;1.48;0.80;;;22.80;50.60;;;;;;5040058;28;20040;-70
2023/05/17 08:24:58;;;;;;;1.10;0.80;;;22.80;50.60;;;;;;5037054;28;20025;-69
2023/05/17 08:27:25;;;;;;;2.58;0.77;;;22.80;50.70;;;;;;5035137;28;20037;-69
2023/05/17 08:29:52;;;;;;;1.90;1.00;;;22.80;50.70;;;;;;5035654;28;20029;-69
2023/05/17 08:32:18;;;;;;;1.50;0.80;;;22.80;50.80;;;;;;5038057;28;20033;-69
2023/05/17 08:34:44;;;;;;;1.52;0.90;;;22.80;50.80;;;;;;5039594;28;20508;-68
2023/05/17 08:37:11;;;;;;;1.30;0.80;;;22.80;50.80;;;;;;5039364;28;20047;-69
2023/05/17 08:39:36;;;;;;;1.00;0.80;;;22.80;50.70;;;;;;5037016;28;20180;-69
2023/05/17 08:42:06;;;;;;;1.40;0.80;;;22.80;50.70;;;;;;5037888;28;20108;-69
2023/05/17 08:44:32;;;;;;;1.50;0.82;;;22.80;50.70;;;;;;5038447;28;20029;-68
2023/05/17 08:46:59;;;;;;;1.42;0.80;;;22.80;50.70;;;;;;5033237;28;20549;-68
2023/05/17 08:49:27;;;;;;;1.33;0.80;;;22.80;50.70;;;;;;5040886;28;20500;-69
2023/05/17 08:51:54;;;;;;;3.40;1.02;;;22.80;50.70;;;;;;5037239;28;20026;-69
2023/05/17 08:54:19;;;;;;;1.33;0.80;;;22.80;50.60;;;;;;5037629;28;20134;-69
2023/05/17 08:56:51;;;;;;;3.30;0.80;;;22.80;50.70;;;;;;5037772;28;20084;-69
2023/05/17 08:59:18;;;;;;;2.30;0.80;;;22.80;50.70;;;;;;5034495;28;20326;-68
2023/05/17 09:01:48;;;;;;;1.58;0.90;;;22.80;50.70;;;;;;5037639;28;20057;-68
2023/05/17 09:04:15;;;;;;;2.15;0.80;;;22.80;50.70;;;;;;5037394;28;20026;-69
2023/05/17 09:06:43;;;;;;;1.05;0.80;;;22.80;50.60;;;;;;5040430;28;20365;-68
2023/05/17 09:09:09;;;;;;;1.30;0.75;;;22.80;50.60;;;;;;5035505;28;20112;-69
2023/05/17 09:11:35;;;;;;;2.10;0.90;;;22.80;50.60;;;;;;5036392;28;20113;-69
2023/05/17 09:14:03;;;;;;;1.27;0.70;;;22.80;50.60;;;;;;5038705;28;20160;-68
2023/05/17 09:16:36;;;;;;;0.73;0.60;;;22.80;50.60;;;;;;5037144;28;20147;-69
2023/05/17 09:19:04;;;;;;;1.67;0.70;;;22.80;50.60;;;;;;5038479;28;20361;-68
2023/05/17 09:21:30;;;;;;;1.17;0.70;;;22.80;50.70;;;;;;5036532;28;20446;-68
2023/05/17 09:23:58;;;;;;;1.23;0.80;;;22.80;50.70;;;;;;5036500;28;20465;-69
2023/05/17 09:26:24;;;;;;;1.45;0.70;;;22.90;51.30;;;;;;5038073;28;20477;-68
2023/05/17 09:28:52;;;;;;;1.45;0.80;;;22.90;50.70;;;;;;5036189;28;20181;-69
2023/05/17 09:31:18;;;;;;;1.23;0.82;;;22.80;50.60;;;;;;5040968;28;20351;-68
2023/05/17 09:33:45;;;;;;;1.92;0.80;;;22.90;50.70;;;;;;5041053;28;20033;-69
2023/05/17 09:36:19;;;;;;;1.75;0.70;;;22.90;50.70;;;;;;5039510;28;20028;-69
2023/05/17 09:39:00;;;;;;;0.88;0.60;;;22.90;50.60;;;;;;5041867;28;20048;-69
2023/05/17 09:41:40;;;;;;;1.30;0.80;;;22.90;50.70;;;;;;5041267;28;20021;-68
2023/05/17 09:44:10;;;;;;;1.25;0.80;;;22.90;50.60;;;;;;5039747;28;20080;-68
2023/05/17 09:46:40;;;;;;;1.30;0.70;;;22.90;50.60;;;;;;5042603;28;20036;-69
2023/05/17 09:49:08;;;;;;;0.90;0.70;;;22.90;50.60;;;;;;5041979;28;20071;-69
2023/05/17 09:51:41;;;;;;;1.15;0.80;;;22.90;50.60;;;;;;5040262;28;20052;-68
2023/05/17 09:54:08;;;;;;;1.15;0.70;;;22.90;50.60;;;;;;5038363;28;20136;-69
2023/05/17 09:56:35;;;;;;;1.45;0.80;;;22.90;50.60;;;;;;5040750;28;20021;-69
2023/05/17 09:59:01;;;;;;;1.00;0.60;;;22.90;50.60;;;;;;5047674;28;20098;-68
2023/05/17 10:01:30;;;;;;;1.08;0.85;;;22.90;50.60;;;;;;5040938;28;20501;-69
2023/05/17 10:04:02;;;;;;;1.40;0.70;;;22.90;50.60;;;;;;5039999;28;20061;-68
2023/05/17 10:06:29;;;;;;;0.70;0.60;;;22.90;50.60;;;;;;5038316;28;20263;-69
2023/05/17 10:08:57;;;;;;;1.40;0.80;;;22.90;50.60;;;;;;5042410;28;20029;-69
2023/05/17 10:11:32;;;;;;;1.33;0.70;;;22.90;50.60;;;;;;5039530;28;20025;-69
2023/05/17 10:14:07;;;;;;;1.30;0.70;;;22.90;50.60;;;;;;5041619;28;20460;-68
2023/05/17 10:16:34;;;;;;;0.85;0.70;;;22.90;50.60;;;;;;5038625;28;20116;-68
2023/05/17 10:19:02;;;;;;;1.17;0.80;;;22.90;50.60;;;;;;5039468;28;20018;-69
2023/05/17 10:21:30;;;;;;;1.40;0.70;;;22.90;50.60;;;;;;5039586;28;20486;-68
2023/05/17 10:24:00;;;;;;;0.95;0.75;;;22.90;50.60;;;;;;5042733;28;20421;-68
2023/05/17 10:26:27;;;;;;;1.20;0.73;;;22.90;50.60;;;;;;5039831;28;20029;-68
2023/05/17 10:29:00;;;;;;;1.05;0.60;;;22.90;50.60;;;;;;5038741;28;20428;-69
2023/05/17 10:31:31;;;;;;;1.30;0.82;;;22.90;50.60;;;;;;5039183;28;20039;-68
2023/05/17 10:34:01;;;;;;;1.23;0.60;;;22.90;50.50;;;;;;5041094;28;20485;-68
2023/05/17 10:36:27;;;;;;;0.98;0.70;;;22.90;50.50;;;;;;5038846;28;20048;-68
2023/05/17 10:38:54;;;;;;;1.40;0.90;;;22.90;51.00;;;;;;5041394;28;20124;-68
2023/05/17 10:41:23;;;;;;;0.52;0.50;;;22.90;50.50;;;;;;5040251;28;20408;-69
2023/05/17 10:43:49;;;;;;;1.00;0.80;;;22.90;50.50;;;;;;5038821;28;20085;-69
2023/05/17 10:46:18;;;;;;;2.45;0.80;;;22.90;50.50;;;;;;5041892;28;20029;-68
2023/05/17 10:48:46;;;;;;;0.90;0.70;;;22.90;50.50;;;;;;5039342;28;20029;-68
2023/05/17 10:51:12;;;;;;;1.45;0.75;;;22.90;50.50;;;;;;5039737;28;20040;-68
2023/05/17 10:54:17;;;;;;;1.75;0.80;;;23.00;50.50;;;;;;5046503;28;20489;-68
2023/05/17 10:56:50;;;;;;;0.98;0.70;;;23.00;50.50;;;;;;5039508;28;20401;-68
2023/05/17 10:59:23;;;;;;;1.17;0.70;;;23.00;50.50;;;;;;5035868;28;20026;-68
2023/05/17 11:02:05;;;;;;;1.20;0.77;;;23.00;50.50;;;;;;5038063;28;20025;-68
2023/05/17 11:04:38;;;;;;;1.20;0.70;;;23.00;50.50;;;;;;5054190;28;20111;-68
2023/05/17 11:07:16;;;;;;;1.33;0.80;;;23.00;50.50;;;;;;5039664;28;20389;-68
2023/05/17 11:09:42;;;;;;;1.10;0.70;;;23.00;50.50;;;;;;5036976;28;20332;-68
2023/05/17 11:12:13;;;;;;;1.42;0.70;;;23.00;50.50;;;;;;5038223;28;20087;-68
2023/05/17 11:14:44;;;;;;;1.60;0.70;;;23.00;50.50;;;;;;5037704;28;20052;-68
2023/05/17 11:17:18;;;;;;;1.92;0.70;;;23.00;50.50;;;;;;5040401;28;20129;-68
2023/05/17 11:19:53;;;;;;;1.08;0.68;;;23.00;50.40;;;;;;5041774;28;20370;-68
2023/05/17 11:22:22;;;;;;;1.77;0.90;;;23.00;50.50;;;;;;5040176;28;20029;-68
2023/05/17 11:24:52;;;;;;;1.38;0.85;;;23.00;50.50;;;;;;5039170;28;20151;-68
2023/05/17 11:27:19;;;;;;;0.93;0.70;;;23.00;50.50;;;;;;5038801;28;20147;-68
2023/05/17 11:29:48;;;;;;;1.05;0.70;;;23.00;50.40;;;;;;5036531;28;20267;-67
2023/05/17 11:32:13;;;;;;;1.10;0.80;;;23.00;50.40;;;;;;5039317;28;20516;-68
2023/05/17 11:34:39;;;;;;;1.35;0.80;;;23.00;50.40;;;;;;5041103;28;20025;-68
2023/05/17 11:37:09;;;;;;;1.50;0.80;;;23.00;50.40;;;;;;5039572;28;20022;-68
2023/05/17 11:39:35;;;;;;;1.40;0.70;;;23.00;50.40;;;;;;5039047;28;20032;-68
2023/05/17 11:42:01;;;;;;;1.90;0.90;;;23.00;50.40;;;;;;5034331;28;20029;-69
2023/05/17 11:44:31;;;;;;;1.15;0.75;;;23.00;50.40;;;;;;5038658;28;20060;-69
2023/05/17 11:47:05;;;;;;;1.45;0.90;;;23.00;50.40;;;;;;5037898;28;20029;-69
2023/05/17 11:49:35;;;;;;;2.42;0.80;;;23.00;50.40;;;;;;5039187;28;20063;-67
2023/05/17 11:52:01;;;;;;;0.68;0.65;;;23.00;50.40;;;;;;5037965;28;20064;-68
2023/05/17 11:54:29;;;;;;;1.02;0.70;;;23.00;50.40;;;;;;5038609;28;20032;-69
2023/05/17 11:56:56;;;;;;;1.15;0.70;;;23.00;50.40;;;;;;5039032;28;20029;-68
2023/05/17 11:59:22;;;;;;;0.95;0.70;;;23.00;50.40;;;;;;5038254;28;20033;-69
2023/05/17 12:01:49;;;;;;;1.35;0.88;;;23.00;50.40;;;;;;5036392;28;20488;-68
2023/05/17 12:04:23;;;;;;;1.73;0.80;;;23.10;50.40;;;;;;5039352;28;20021;-68
2023/05/17 12:06:49;;;;;;;1.50;0.90;;;23.00;50.40;;;;;;5036205;28;20021;-68
2023/05/17 12:09:16;;;;;;;0.90;0.70;;;23.00;50.40;;;;;;5039414;28;20033;-69
2023/05/17 12:11:42;;;;;;;2.13;0.90;;;23.10;50.40;;;;;;5041788;28;20028;-68
2023/05/17 12:14:08;;;;;;;1.67;0.90;;;23.10;50.40;;;;;;5036307;28;20044;-70
2023/05/17 12:16:35;;;;;;;1.15;0.77;;;23.10;50.50;;;;;;5037118;28;20179;-69
2023/05/17 12:19:01;;;;;;;1.65;0.80;;;23.10;50.40;;;;;;5045250;28;20021;-68
2023/05/17 12:21:27;;;;;;;1.30;0.70;;;23.10;50.50;;;;;;5037020;28;20507;-69
2023/05/17 12:23:52;;;;;;;1.10;0.70;;;23.10;50.40;;;;;;5040366;28;20036;-69
2023/05/17 12:26:20;;;;;;;1.25;0.70;;;23.10;50.40;;;;;;5038082;28;20025;-69
2023/05/17 12:28:59;;;;;;;1.73;0.80;;;23.10;50.40;;;;;;5036846;28;20465;-69
2023/05/17 12:31:32;;;;;;;1.55;0.70;;;23.10;50.50;;;;;;5032392;28;20033;-69
2023/05/17 12:33:58;;;;;;;1.48;0.70;;;23.10;50.40;;;;;;5034564;28;20496;-69
2023/05/17 12:36:27;;;;;;;1.13;0.82;;;23.10;50.40;;;;;;5037225;28;20099;-70
2023/05/17 12:38:55;;;;;;;1.42;0.90;;;23.10;50.40;;;;;;5036862;28;20025;-70
2023/05/17 12:41:22;;;;;;;1.38;0.80;;;23.20;50.40;;;;;;5038643;28;20056;-70
2023/05/17 12:43:49;;;;;;;1.08;0.75;;;23.10;50.40;;;;;;5037534;28;20136;-69
2023/05/17 12:46:20;;;;;;;2.08;0.75;;;23.10;50.40;;;;;;5036947;28;20040;-69
2023/05/17 12:48:48;;;;;;;1.02;0.70;;;23.10;50.40;;;;;;5036171;28;20689;-69